Time;durP1;ratioP1;P1;durP2;ratioP2;P2;SDS_P1;SDS_P2;PMS_P1;PMS_P2;Temp;Humidity;BMP_temperature;BMP_pressure;BME280_temperature;BME280_humidity;BME280_pressure;Samples;Min_cycle;Max_cycle;Signal;HPM_P1;HPM_P2
2021/05/12 00:01:33;;;;;;;3.75;1.40;;;19.70;71.90;;;;;;5072777;28;20048;-77
2021/05/12 00:03:59;;;;;;;2.42;1.00;;;19.70;71.90;;;;;;5073057;28;20391;-77
2021/05/12 00:06:25;;;;;;;2.78;0.85;;;19.60;71.80;;;;;;5073513;28;20037;-77
2021/05/12 00:08:51;;;;;;;2.03;1.00;;;19.70;71.80;;;;;;5073664;28;20107;-77
2021/05/12 00:11:17;;;;;;;2.22;0.90;;;19.60;71.70;;;;;;5072900;28;20100;-77
2021/05/12 00:13:42;;;;;;;2.80;0.93;;;19.60;71.50;;;;;;5072481;28;20055;-77
2021/05/12 00:16:08;;;;;;;1.85;0.80;;;19.60;71.40;;;;;;5073347;28;20139;-77
2021/05/12 00:18:38;;;;;;;2.35;0.95;;;19.60;71.40;;;;;;5073396;28;20448;-77
2021/05/12 00:21:07;;;;;;;2.78;1.00;;;19.60;71.40;;;;;;5072842;28;20040;-77
2021/05/12 00:23:44;;;;;;;3.13;0.80;;;19.60;71.40;;;;;;5073057;28;20028;-77
2021/05/12 00:26:10;;;;;;;2.88;0.90;;;19.60;71.30;;;;;;5073785;28;20022;-77
2021/05/12 00:28:35;;;;;;;2.08;1.00;;;19.60;71.30;;;;;;5073143;28;20036;-77
2021/05/12 00:31:01;;;;;;;2.00;1.00;;;19.60;71.20;;;;;;5071684;28;20035;-77
2021/05/12 00:33:27;;;;;;;2.42;0.90;;;19.60;71.20;;;;;;5072683;28;20020;-77
2021/05/12 00:35:52;;;;;;;2.30;0.82;;;19.60;71.10;;;;;;5072523;28;20427;-77
2021/05/12 00:38:18;;;;;;;2.20;0.60;;;19.50;71.00;;;;;;5072984;28;20439;-77
2021/05/12 00:40:43;;;;;;;2.88;1.13;;;19.60;71.70;;;;;;5072760;28;20029;-78
2021/05/12 00:43:09;;;;;;;2.13;0.85;;;19.50;70.90;;;;;;5073051;28;20438;-78
2021/05/12 00:45:35;;;;;;;2.70;1.02;;;19.60;71.60;;;;;;5071190;28;20036;-77
2021/05/12 00:48:00;;;;;;;3.38;1.50;;;19.50;70.70;;;;;;5070150;28;20025;-78
2021/05/12 00:50:29;;;;;;;1.70;0.70;;;19.50;70.70;;;;;;5071734;28;20458;-77
2021/05/12 00:52:54;;;;;;;3.60;0.90;;;19.50;70.60;;;;;;5073044;28;20025;-78
2021/05/12 00:55:20;;;;;;;2.20;0.70;;;19.50;70.60;;;;;;5072413;28;20078;-78
2021/05/12 00:57:46;;;;;;;2.80;0.90;;;19.50;70.50;;;;;;5072542;28;20099;-78
2021/05/12 01:00:14;;;;;;;2.13;0.70;;;19.50;70.40;;;;;;5072835;28;20039;-77
2021/05/12 01:02:40;;;;;;;2.70;0.60;;;19.50;70.40;;;;;;5072319;28;20021;-77
2021/05/12 01:05:10;;;;;;;4.38;0.90;;;19.50;70.30;;;;;;5072648;28;20027;-77
2021/05/12 01:07:36;;;;;;;2.90;0.70;;;19.50;70.30;;;;;;5071954;28;20048;-77
2021/05/12 01:10:02;;;;;;;1.75;0.68;;;19.50;70.30;;;;;;5072282;28;20033;-77
2021/05/12 01:12:28;;;;;;;1.63;0.80;;;19.40;70.10;;;;;;5071515;28;20031;-77
2021/05/12 01:14:53;;;;;;;2.75;0.80;;;19.50;70.20;;;;;;5072497;28;20103;-77
2021/05/12 01:17:19;;;;;;;2.08;0.75;;;19.40;70.10;;;;;;5071951;28;20599;-77
2021/05/12 01:19:45;;;;;;;1.75;0.80;;;19.40;70.10;;;;;;5071833;28;20107;-77
2021/05/12 01:22:10;;;;;;;2.38;0.68;;;19.50;70.00;;;;;;5072029;28;20135;-77
2021/05/12 01:24:36;;;;;;;1.88;0.82;;;19.40;69.90;;;;;;5071994;28;20020;-77
2021/05/12 01:27:02;;;;;;;2.35;0.90;;;19.40;69.90;;;;;;5071859;28;20370;-77
2021/05/12 01:29:28;;;;;;;1.60;0.70;;;19.40;69.90;;;;;;5071485;28;20563;-76
2021/05/12 01:31:54;;;;;;;2.90;0.70;;;19.40;69.90;;;;;;5070478;28;20100;-77
2021/05/12 01:34:21;;;;;;;3.33;0.82;;;19.40;69.80;;;;;;5071826;28;20021;-78
2021/05/12 01:36:50;;;;;;;2.85;0.80;;;19.40;69.80;;;;;;5071325;28;20543;-77
2021/05/12 01:39:16;;;;;;;2.63;0.80;;;19.40;69.70;;;;;;5071775;28;20055;-77
2021/05/12 01:41:42;;;;;;;1.90;0.73;;;19.40;69.70;;;;;;5071885;28;20511;-77
2021/05/12 01:44:12;;;;;;;2.58;0.90;;;19.40;69.60;;;;;;5071229;28;20443;-77
2021/05/12 01:46:43;;;;;;;1.52;0.60;;;19.40;69.60;;;;;;5071559;28;20526;-77
2021/05/12 01:49:10;;;;;;;2.38;0.80;;;19.40;69.60;;;;;;5070725;28;20048;-78
2021/05/12 01:51:36;;;;;;;1.75;0.60;;;19.40;69.40;;;;;;5069608;28;20032;-78
2021/05/12 01:54:04;;;;;;;1.48;0.60;;;19.30;69.30;;;;;;5071254;28;20115;-77
2021/05/12 01:56:29;;;;;;;0.90;0.50;;;19.30;69.30;;;;;;5071484;28;20024;-77
2021/05/12 01:58:55;;;;;;;2.30;0.70;;;19.40;69.30;;;;;;5070977;28;20081;-78
2021/05/12 02:01:21;;;;;;;2.00;0.60;;;19.30;69.30;;;;;;5070534;28;20450;-77
2021/05/12 02:03:47;;;;;;;2.05;0.70;;;19.30;69.20;;;;;;5071198;28;20553;-77
2021/05/12 02:06:13;;;;;;;3.00;0.90;;;19.30;69.20;;;;;;5071514;28;20048;-77
2021/05/12 02:08:39;;;;;;;1.98;0.60;;;19.30;69.10;;;;;;5070082;28;20115;-77
2021/05/12 02:11:06;;;;;;;3.13;0.82;;;19.30;69.10;;;;;;5069499;28;20131;-78
2021/05/12 02:13:33;;;;;;;2.35;0.90;;;19.30;69.00;;;;;;5069846;28;20384;-77
2021/05/12 02:16:01;;;;;;;3.95;0.90;;;19.30;69.00;;;;;;5070836;28;20028;-77
2021/05/12 02:18:27;;;;;;;0.77;0.38;;;19.30;68.90;;;;;;5069741;28;20035;-77
2021/05/12 02:20:52;;;;;;;1.23;0.55;;;19.20;68.80;;;;;;5070438;28;20508;-77
2021/05/12 02:23:20;;;;;;;1.65;0.68;;;19.20;68.80;;;;;;5070833;28;20024;-77
2021/05/12 02:25:46;;;;;;;2.10;0.60;;;19.20;68.80;;;;;;5070999;28;20024;-78
2021/05/12 02:28:12;;;;;;;1.90;0.70;;;19.20;68.70;;;;;;5071346;28;20103;-77
2021/05/12 02:30:39;;;;;;;2.78;1.25;;;19.20;68.70;;;;;;5068930;28;20029;-77
2021/05/12 02:33:05;;;;;;;1.65;0.60;;;19.30;68.70;;;;;;5069796;28;20020;-77
2021/05/12 02:35:32;;;;;;;1.25;0.50;;;19.20;68.60;;;;;;5069977;28;20086;-77
2021/05/12 02:37:58;;;;;;;3.20;0.50;;;19.20;68.70;;;;;;5071055;28;20392;-78
2021/05/12 02:40:25;;;;;;;2.63;1.05;;;19.20;68.60;;;;;;5068768;28;20037;-78
2021/05/12 02:42:53;;;;;;;1.15;0.60;;;19.20;68.50;;;;;;5070561;28;20078;-78
2021/05/12 02:45:19;;;;;;;1.85;0.45;;;19.20;69.20;;;;;;5069086;28;20029;-77
2021/05/12 02:47:58;;;;;;;1.83;0.68;;;19.20;68.40;;;;;;5070846;28;20025;-77
2021/05/12 02:50:36;;;;;;;1.67;0.70;;;19.10;68.30;;;;;;5069941;28;20115;-78
2021/05/12 02:53:04;;;;;;;2.85;0.60;;;19.20;68.30;;;;;;5070739;28;20099;-78
2021/05/12 02:55:31;;;;;;;2.33;0.60;;;19.10;68.20;;;;;;5070776;28;20576;-78
2021/05/12 02:57:57;;;;;;;1.35;0.50;;;19.10;68.10;;;;;;5070471;28;20043;-78
2021/05/12 03:00:26;;;;;;;2.00;0.77;;;19.20;68.20;;;;;;5070487;28;20039;-77
2021/05/12 03:02:52;;;;;;;2.63;0.60;;;19.20;68.00;;;;;;5070506;28;20032;-77
2021/05/12 03:05:18;;;;;;;1.35;0.50;;;19.20;68.00;;;;;;5070489;28;20120;-77
2021/05/12 03:07:44;;;;;;;1.83;0.63;;;19.10;67.80;;;;;;5050783;28;20029;-77
2021/05/12 03:10:13;;;;;;;1.95;0.70;;;19.10;67.70;;;;;;5060609;28;20388;-77
2021/05/12 03:12:39;;;;;;;1.30;0.60;;;19.10;67.70;;;;;;5072850;28;20060;-77
2021/05/12 03:15:08;;;;;;;1.90;0.70;;;19.10;67.60;;;;;;5074567;28;20056;-77
2021/05/12 03:17:34;;;;;;;3.42;0.70;;;19.10;67.60;;;;;;5074456;28;20052;-77
2021/05/12 03:19:59;;;;;;;1.73;0.60;;;19.10;67.50;;;;;;5074021;28;20068;-77
2021/05/12 03:22:25;;;;;;;1.35;0.50;;;19.10;67.50;;;;;;5074359;28;20024;-77
2021/05/12 03:24:51;;;;;;;2.28;0.80;;;19.10;67.60;;;;;;5074126;28;20039;-77
2021/05/12 03:27:16;;;;;;;1.35;0.70;;;19.10;67.50;;;;;;5074261;28;20017;-77
2021/05/12 03:29:42;;;;;;;1.40;0.50;;;19.00;67.40;;;;;;5073810;28;20020;-77
2021/05/12 03:32:08;;;;;;;0.90;0.50;;;19.00;67.40;;;;;;5074179;28;20036;-77
2021/05/12 03:34:33;;;;;;;3.38;0.70;;;19.00;67.40;;;;;;5073596;28;20036;-77
2021/05/12 03:36:59;;;;;;;0.75;0.40;;;19.00;67.30;;;;;;5073896;28;20031;-77
2021/05/12 03:39:25;;;;;;;1.35;0.45;;;19.00;67.20;;;;;;5073566;28;20024;-77
2021/05/12 03:41:50;;;;;;;1.95;0.68;;;19.00;67.10;;;;;;5073642;28;20022;-77
2021/05/12 03:44:16;;;;;;;2.47;0.60;;;19.00;67.00;;;;;;5074064;28;20024;-77
2021/05/12 03:46:42;;;;;;;2.15;0.60;;;19.00;67.00;;;;;;5074231;28;20488;-77
2021/05/12 03:49:07;;;;;;;2.35;0.65;;;19.00;67.00;;;;;;5073747;28;20028;-77
2021/05/12 03:51:33;;;;;;;1.25;0.50;;;19.00;67.00;;;;;;5073048;28;20021;-77
2021/05/12 03:53:58;;;;;;;1.90;0.50;;;19.00;67.00;;;;;;5073588;28;20105;-77
2021/05/12 03:56:24;;;;;;;3.53;0.95;;;19.00;66.90;;;;;;5073567;28;20028;-77
2021/05/12 03:58:50;;;;;;;2.50;0.70;;;19.00;66.90;;;;;;5073653;28;20029;-77
2021/05/12 04:01:15;;;;;;;1.88;0.70;;;19.00;66.80;;;;;;5073628;28;20032;-76
2021/05/12 04:03:41;;;;;;;1.08;0.60;;;19.00;67.50;;;;;;5073864;28;20031;-77
2021/05/12 04:06:06;;;;;;;2.60;0.82;;;19.00;66.80;;;;;;5073409;28;20029;-77
2021/05/12 04:08:32;;;;;;;1.42;0.57;;;19.00;66.70;;;;;;5073044;28;20085;-77
2021/05/12 04:10:58;;;;;;;1.38;0.60;;;18.90;66.50;;;;;;5073031;28;20073;-77
2021/05/12 04:13:24;;;;;;;1.98;0.70;;;19.00;66.70;;;;;;5073066;28;20438;-77
2021/05/12 04:15:49;;;;;;;1.17;0.60;;;18.90;66.50;;;;;;5072030;28;20025;-78
2021/05/12 04:18:16;;;;;;;3.55;0.70;;;19.00;66.50;;;;;;5072183;28;20032;-77
2021/05/12 04:20:42;;;;;;;1.20;0.38;;;19.00;66.50;;;;;;5073775;28;20060;-77
2021/05/12 04:23:08;;;;;;;2.65;0.70;;;19.00;66.50;;;;;;5072289;28;20023;-77
2021/05/12 04:25:33;;;;;;;2.13;0.60;;;18.90;66.40;;;;;;5072582;28;20029;-77
2021/05/12 04:28:00;;;;;;;1.73;0.60;;;18.90;66.30;;;;;;5072911;28;20028;-77
2021/05/12 04:30:28;;;;;;;1.77;0.60;;;18.90;66.20;;;;;;5071782;28;20032;-76
2021/05/12 04:32:58;;;;;;;1.50;0.60;;;18.90;66.30;;;;;;5071498;28;20028;-76
2021/05/12 04:35:24;;;;;;;2.97;0.85;;;18.90;66.30;;;;;;5072242;28;20032;-77
2021/05/12 04:37:50;;;;;;;1.83;0.60;;;18.90;66.20;;;;;;5073282;28;20028;-76
2021/05/12 04:40:16;;;;;;;2.63;0.50;;;18.90;66.20;;;;;;5072548;28;20032;-77
2021/05/12 04:42:42;;;;;;;1.58;0.80;;;18.80;66.10;;;;;;5071777;28;20098;-78
2021/05/12 04:45:09;;;;;;;1.90;0.50;;;18.90;66.20;;;;;;5073358;28;20472;-78
2021/05/12 04:47:35;;;;;;;1.90;0.60;;;18.90;66.20;;;;;;5071670;28;20444;-78
2021/05/12 04:50:01;;;;;;;2.55;0.95;;;18.90;66.10;;;;;;5072627;28;20025;-77
2021/05/12 04:52:26;;;;;;;1.45;0.52;;;18.80;66.00;;;;;;5071942;28;20557;-77
2021/05/12 04:54:52;;;;;;;1.77;0.50;;;18.90;66.10;;;;;;5071353;28;20131;-77
2021/05/12 04:57:18;;;;;;;2.33;0.75;;;18.90;66.10;;;;;;5072445;28;20038;-77
2021/05/12 04:59:44;;;;;;;1.83;0.30;;;18.80;66.00;;;;;;5072702;28;20146;-77
2021/05/12 05:02:11;;;;;;;3.08;0.90;;;18.80;65.90;;;;;;5071713;28;20422;-77
2021/05/12 05:04:40;;;;;;;3.90;1.00;;;18.80;65.90;;;;;;5071637;28;20103;-77
2021/05/12 05:07:06;;;;;;;2.53;0.80;;;18.80;65.90;;;;;;5072171;28;20572;-77
2021/05/12 05:09:31;;;;;;;1.73;0.60;;;18.80;65.90;;;;;;5071637;28;20091;-78
2021/05/12 05:11:57;;;;;;;1.23;0.55;;;18.80;65.80;;;;;;5071697;28;20040;-78
2021/05/12 05:14:23;;;;;;;1.02;0.50;;;18.80;65.80;;;;;;5071947;28;20033;-78
2021/05/12 05:16:49;;;;;;;1.52;0.65;;;18.80;65.80;;;;;;5072219;28;20078;-78
2021/05/12 05:19:14;;;;;;;2.45;0.65;;;18.80;65.70;;;;;;5068896;28;20029;-77
2021/05/12 05:21:41;;;;;;;2.25;0.70;;;18.80;65.80;;;;;;5071731;28;20381;-78
2021/05/12 05:24:08;;;;;;;2.17;0.60;;;18.80;65.70;;;;;;5071095;28;20025;-77
2021/05/12 05:26:34;;;;;;;2.53;0.93;;;18.80;65.70;;;;;;5070398;28;20024;-78
2021/05/12 05:29:00;;;;;;;2.47;0.70;;;18.80;65.70;;;;;;5070365;28;20172;-77
2021/05/12 05:31:26;;;;;;;2.97;0.93;;;18.80;65.70;;;;;;5070374;28;20446;-77
2021/05/12 05:33:51;;;;;;;2.42;0.60;;;18.80;65.70;;;;;;5070579;28;20063;-77
2021/05/12 05:36:17;;;;;;;1.83;0.70;;;18.80;65.70;;;;;;5071152;28;20103;-77
2021/05/12 05:38:42;;;;;;;2.25;0.73;;;18.80;65.60;;;;;;5071697;28;20103;-76
2021/05/12 05:41:08;;;;;;;1.55;0.98;;;18.80;65.70;;;;;;5070898;28;20097;-77
2021/05/12 05:43:34;;;;;;;2.65;0.82;;;18.70;65.70;;;;;;5071285;28;20124;-77
2021/05/12 05:45:59;;;;;;;0.50;0.40;;;18.80;65.70;;;;;;5070521;28;20020;-76
2021/05/12 05:48:25;;;;;;;3.85;0.88;;;18.80;65.70;;;;;;5071100;28;20028;-77
2021/05/12 05:50:51;;;;;;;1.65;0.55;;;18.80;65.70;;;;;;5069711;28;20017;-77
2021/05/12 05:53:20;;;;;;;1.45;0.50;;;18.70;65.70;;;;;;5069591;28;20020;-77
2021/05/12 05:55:47;;;;;;;1.30;0.60;;;18.70;65.70;;;;;;5070518;28;20063;-78
2021/05/12 05:58:12;;;;;;;2.15;0.60;;;18.70;65.70;;;;;;5070214;28;20024;-77
2021/05/12 06:00:40;;;;;;;3.15;0.82;;;18.70;65.70;;;;;;5069613;28;20036;-77
2021/05/12 06:03:06;;;;;;;2.50;0.80;;;18.70;65.70;;;;;;5071529;28;20063;-76
2021/05/12 06:05:32;;;;;;;2.10;0.60;;;18.70;65.70;;;;;;5070870;28;20049;-76
2021/05/12 06:07:57;;;;;;;1.20;0.43;;;18.70;65.70;;;;;;5070684;28;20043;-77
2021/05/12 06:10:23;;;;;;;1.83;0.70;;;18.70;65.70;;;;;;5071172;28;20090;-77
2021/05/12 06:12:51;;;;;;;1.85;0.55;;;18.70;65.70;;;;;;5070759;28;20118;-77
2021/05/12 06:15:20;;;;;;;1.90;0.70;;;18.70;65.80;;;;;;5070597;28;20029;-77
2021/05/12 06:17:49;;;;;;;2.15;0.63;;;18.70;66.10;;;;;;5070330;28;20511;-77
2021/05/12 06:20:15;;;;;;;1.85;0.57;;;18.80;66.30;;;;;;5070455;28;20472;-78
2021/05/12 06:22:42;;;;;;;1.95;0.60;;;18.80;66.30;;;;;;5071242;28;20033;-77
2021/05/12 06:25:10;;;;;;;3.25;0.60;;;18.80;66.40;;;;;;5069416;28;20047;-77
2021/05/12 06:27:42;;;;;;;1.63;0.60;;;18.80;66.70;;;;;;5069615;28;20036;-77
2021/05/12 06:30:09;;;;;;;2.20;0.65;;;18.90;67.50;;;;;;5069780;28;20036;-77
2021/05/12 06:32:35;;;;;;;5.70;0.90;;;18.90;67.10;;;;;;5070456;28;20067;-78
2021/05/12 06:35:01;;;;;;;4.10;0.68;;;19.00;67.00;;;;;;5069498;28;20035;-77
2021/05/12 06:37:29;;;;;;;3.53;0.95;;;19.00;67.30;;;;;;5070366;28;20017;-77
2021/05/12 06:39:55;;;;;;;3.00;0.75;;;19.10;67.30;;;;;;5068555;28;20043;-76
2021/05/12 06:42:20;;;;;;;2.80;0.77;;;19.20;67.30;;;;;;5069903;28;20020;-78
2021/05/12 06:44:46;;;;;;;3.28;0.60;;;19.30;67.40;;;;;;5069806;28;20036;-78
2021/05/12 06:47:11;;;;;;;4.47;0.88;;;19.40;67.40;;;;;;5069554;28;20044;-78
2021/05/12 06:49:37;;;;;;;6.82;1.17;;;19.40;67.30;;;;;;5068998;28;20044;-75
2021/05/12 06:52:03;;;;;;;2.80;0.70;;;19.50;67.30;;;;;;5068939;28;20027;-75
2021/05/12 06:54:28;;;;;;;3.85;1.00;;;19.50;67.20;;;;;;5068248;28;20028;-76
2021/05/12 06:56:54;;;;;;;5.63;0.80;;;19.60;67.30;;;;;;5068648;28;20032;-75
2021/05/12 06:59:20;;;;;;;4.75;1.05;;;19.60;67.00;;;;;;5068589;28;20036;-74
2021/05/12 07:01:45;;;;;;;5.70;1.10;;;19.60;66.70;;;;;;5068897;28;20504;-76
2021/05/12 07:04:11;;;;;;;3.67;0.88;;;19.70;66.70;;;;;;5069486;28;20058;-76
2021/05/12 07:06:36;;;;;;;4.03;0.80;;;19.70;66.30;;;;;;5068372;28;20033;-76
2021/05/12 07:09:02;;;;;;;6.70;1.20;;;19.70;66.20;;;;;;5069241;28;20432;-77
2021/05/12 07:11:29;;;;;;;5.20;1.08;;;19.70;65.90;;;;;;5068577;28;20094;-77
2021/05/12 07:13:55;;;;;;;4.95;0.98;;;19.80;65.80;;;;;;5069379;28;20453;-75
2021/05/12 07:16:20;;;;;;;3.45;1.00;;;19.80;65.90;;;;;;5069552;28;20021;-75
2021/05/12 07:18:46;;;;;;;3.33;1.02;;;19.80;65.80;;;;;;5068497;28;20025;-75
2021/05/12 07:21:12;;;;;;;5.25;0.90;;;19.80;65.70;;;;;;5069848;28;20039;-75
2021/05/12 07:23:39;;;;;;;4.35;1.10;;;19.80;65.70;;;;;;5069801;28;20035;-76
2021/05/12 07:26:05;;;;;;;6.70;0.80;;;19.80;65.50;;;;;;5068766;28;20465;-76
2021/05/12 07:28:31;;;;;;;19.60;12.73;;;19.80;65.40;;;;;;5069650;28;20083;-75
2021/05/12 07:30:57;;;;;;;13.32;8.25;;;19.80;65.50;;;;;;5069527;28;20025;-76
2021/05/12 07:33:22;;;;;;;17.70;7.13;;;19.90;65.60;;;;;;5070161;28;20029;-76
2021/05/12 07:35:48;;;;;;;8.95;5.50;;;19.90;65.60;;;;;;5070270;28;20021;-76
2021/05/12 07:38:14;;;;;;;8.75;4.97;;;19.90;65.40;;;;;;5069793;28;20095;-76
2021/05/12 07:40:40;;;;;;;10.10;4.43;;;19.90;65.30;;;;;;5069527;28;20040;-76
2021/05/12 07:43:09;;;;;;;8.05;4.57;;;20.00;65.10;;;;;;5069563;28;20033;-76
2021/05/12 07:45:37;;;;;;;8.07;4.05;;;20.00;65.10;;;;;;5069539;28;20036;-77
2021/05/12 07:48:07;;;;;;;5.80;3.22;;;20.00;64.90;;;;;;5069809;28;20028;-76
2021/05/12 07:50:34;;;;;;;7.47;3.75;;;20.10;64.80;;;;;;5069639;28;20032;-77
2021/05/12 07:53:03;;;;;;;7.28;3.60;;;20.10;64.80;;;;;;5069407;28;20017;-76
2021/05/12 07:55:28;;;;;;;8.20;2.78;;;20.10;64.70;;;;;;5067139;28;20040;-76
2021/05/12 07:57:55;;;;;;;7.72;3.20;;;20.10;64.60;;;;;;5073311;28;20025;-77
2021/05/12 08:00:21;;;;;;;5.85;2.97;;;20.10;64.70;;;;;;5072651;28;20029;-76
2021/05/12 08:02:47;;;;;;;6.30;2.45;;;20.10;64.60;;;;;;5073519;28;20024;-76
2021/05/12 08:05:13;;;;;;;6.95;2.63;;;20.00;64.50;;;;;;5073598;28;20039;-76
2021/05/12 08:07:39;;;;;;;8.10;3.03;;;20.00;64.50;;;;;;5072828;28;20043;-76
2021/05/12 08:10:06;;;;;;;4.68;2.40;;;20.00;64.40;;;;;;5073480;28;20031;-76
2021/05/12 08:12:31;;;;;;;7.53;2.47;;;20.00;64.40;;;;;;5071725;28;20036;-77
2021/05/12 08:14:57;;;;;;;4.50;2.80;;;20.00;64.40;;;;;;5073226;28;20032;-76
2021/05/12 08:17:23;;;;;;;8.50;2.58;;;20.00;64.40;;;;;;5071927;28;20507;-77
2021/05/12 08:19:48;;;;;;;5.07;2.22;;;20.00;64.40;;;;;;5072752;28;20098;-76
2021/05/12 08:22:14;;;;;;;7.88;2.60;;;20.10;64.40;;;;;;5072483;28;20493;-76
2021/05/12 08:24:39;;;;;;;5.55;2.17;;;20.10;64.30;;;;;;5072612;28;20027;-77
2021/05/12 08:27:05;;;;;;;3.28;2.00;;;20.10;64.20;;;;;;5073020;28;20043;-76
2021/05/12 08:29:33;;;;;;;5.97;2.95;;;20.10;64.20;;;;;;5071563;28;20025;-76
2021/05/12 08:31:59;;;;;;;4.82;1.98;;;20.10;64.30;;;;;;5072157;28;20063;-77
2021/05/12 08:34:27;;;;;;;7.03;2.17;;;20.10;64.20;;;;;;5073007;28;20074;-76
2021/05/12 08:36:54;;;;;;;5.38;2.10;;;20.10;63.90;;;;;;5073130;28;20028;-77
2021/05/12 08:39:20;;;;;;;6.38;2.22;;;20.10;63.90;;;;;;5072745;28;20017;-79
2021/05/12 08:41:47;;;;;;;4.43;2.08;;;20.10;63.90;;;;;;5071866;28;20471;-74
2021/05/12 08:44:13;;;;;;;5.47;2.28;;;20.10;63.90;;;;;;5071511;28;20082;-76
2021/05/12 08:46:41;;;;;;;7.63;2.60;;;20.10;63.90;;;;;;5072673;28;20032;-78
2021/05/12 08:49:08;;;;;;;5.38;1.90;;;20.10;63.90;;;;;;5071642;28;20054;-74
2021/05/12 08:51:34;;;;;;;3.88;1.80;;;20.10;63.70;;;;;;5071567;28;20338;-75
2021/05/12 08:53:59;;;;;;;5.97;2.30;;;20.10;63.90;;;;;;5071967;28;20033;-79
2021/05/12 08:56:26;;;;;;;4.15;2.13;;;20.10;64.00;;;;;;5071467;28;20700;-79
2021/05/12 08:58:52;;;;;;;5.22;2.08;;;20.10;64.60;;;;;;5070014;28;20078;-78
2021/05/12 09:01:18;;;;;;;4.97;2.00;;;20.10;64.60;;;;;;5071921;28;20036;-80
2021/05/12 09:03:44;;;;;;;4.43;1.60;;;20.10;64.90;;;;;;5072123;28;20512;-75
2021/05/12 09:06:10;;;;;;;4.70;1.80;;;20.10;65.00;;;;;;5072556;28;20395;-80
2021/05/12 09:08:37;;;;;;;5.18;1.80;;;20.10;65.20;;;;;;5070854;28;20108;-79
2021/05/12 09:11:03;;;;;;;4.50;1.90;;;20.10;64.70;;;;;;5071803;28;20565;-79
2021/05/12 09:13:38;;;;;;;5.18;1.77;;;20.10;64.50;;;;;;5070479;28;20036;-80
2021/05/12 09:16:26;;;;;;;5.05;2.05;;;20.10;64.40;;;;;;5071542;28;20025;-79
2021/05/12 09:19:04;;;;;;;3.97;1.55;;;20.10;64.40;;;;;;5071268;28;20035;-79
2021/05/12 09:21:51;;;;;;;7.13;1.83;;;20.10;64.60;;;;;;5070164;28;20051;-77
2021/05/12 09:24:37;;;;;;;4.90;1.63;;;20.00;64.80;;;;;;5069730;28;20040;-79
2021/05/12 09:27:20;;;;;;;3.67;1.50;;;20.00;64.80;;;;;;5071834;28;20039;-79
2021/05/12 09:29:56;;;;;;;5.28;1.75;;;20.00;64.90;;;;;;5052353;28;20061;-78
2021/05/12 09:32:22;;;;;;;3.30;1.40;;;20.00;65.10;;;;;;5068812;28;20032;-80
2021/05/12 09:34:58;;;;;;;4.72;1.63;;;20.00;65.10;;;;;;5071667;28;20105;-77
2021/05/12 09:37:39;;;;;;;4.70;1.77;;;20.00;65.10;;;;;;5070633;28;20081;-77
2021/05/12 09:40:07;;;;;;;3.85;1.38;;;20.00;65.10;;;;;;5071301;28;20028;-77
2021/05/12 09:42:35;;;;;;;5.68;1.50;;;20.00;65.20;;;;;;5069213;28;20027;-79
2021/05/12 09:45:24;;;;;;;4.82;1.30;;;20.00;65.20;;;;;;5070577;28;20531;-78
2021/05/12 09:47:53;;;;;;;4.03;1.17;;;20.10;65.30;;;;;;5060081;28;20086;-79
2021/05/12 09:50:25;;;;;;;5.20;1.50;;;20.10;65.20;;;;;;5070229;28;20074;-79
2021/05/12 09:52:56;;;;;;;3.50;1.40;;;20.10;65.20;;;;;;5070417;28;20023;-74
2021/05/12 09:55:40;;;;;;;7.03;1.70;;;20.10;65.10;;;;;;5070410;28;20074;-74
2021/05/12 09:58:24;;;;;;;4.28;1.52;;;20.10;65.30;;;;;;5068792;28;20025;-75
2021/05/12 10:00:52;;;;;;;3.20;1.40;;;20.10;65.60;;;;;;5071455;28;20431;-73
2021/05/12 10:03:22;;;;;;;4.00;1.40;;;20.10;65.70;;;;;;5069081;28;20479;-78
2021/05/12 10:05:49;;;;;;;4.03;1.20;;;20.10;65.80;;;;;;5069762;28;20032;-77
2021/05/12 10:08:27;;;;;;;5.03;1.20;;;20.10;65.70;;;;;;5071395;28;20511;-76
2021/05/12 10:10:57;;;;;;;3.50;1.20;;;20.10;65.70;;;;;;5070504;28;20021;-75
2021/05/12 10:13:23;;;;;;;3.13;1.30;;;20.10;65.60;;;;;;5069423;28;20024;-77
2021/05/12 10:15:48;;;;;;;4.53;1.63;;;20.00;65.50;;;;;;5070451;28;20021;-77
2021/05/12 10:18:14;;;;;;;3.90;1.30;;;20.00;65.40;;;;;;5070374;28;20047;-74
2021/05/12 10:20:40;;;;;;;3.22;1.10;;;20.00;65.40;;;;;;5070497;28;20036;-74
2021/05/12 10:23:06;;;;;;;3.85;1.30;;;20.00;65.50;;;;;;5070573;28;20032;-74
2021/05/12 10:25:31;;;;;;;5.05;1.42;;;20.00;65.40;;;;;;5069958;28;20035;-73
2021/05/12 10:27:58;;;;;;;4.68;1.35;;;20.00;65.40;;;;;;5070200;28;20075;-78
2021/05/12 10:30:24;;;;;;;2.25;1.17;;;20.10;65.50;;;;;;5069664;28;20021;-76
2021/05/12 10:32:54;;;;;;;6.35;1.50;;;20.10;65.50;;;;;;5059198;28;20028;-75
2021/05/12 10:35:38;;;;;;;4.32;1.60;;;20.10;65.60;;;;;;5070673;28;20020;-74
2021/05/12 10:38:05;;;;;;;6.03;1.50;;;20.10;65.70;;;;;;5069986;28;20455;-76
2021/05/12 10:40:32;;;;;;;5.10;1.60;;;20.20;66.70;;;;;;5070124;28;20476;-75
2021/05/12 10:48:36;;;;;;;2.78;1.20;;;20.30;66.30;;;;;;5051187;28;20021;-76
2021/05/12 10:51:05;;;;;;;5.45;1.35;;;20.40;66.20;;;;;;5051656;28;20104;-77
2021/05/12 10:53:33;;;;;;;6.72;1.27;;;20.50;67.00;;;;;;5069804;28;20460;-75
2021/05/12 10:55:59;;;;;;;3.58;1.20;;;20.60;67.30;;;;;;5070346;28;20091;-77
2021/05/12 10:58:27;;;;;;;7.03;1.58;;;20.70;67.10;;;;;;5069464;28;20021;-75
2021/05/12 11:01:03;;;;;;;6.15;1.67;;;20.70;66.40;;;;;;5070183;28;20040;-74
2021/05/12 11:03:53;;;;;;;3.75;1.52;;;20.80;66.60;;;;;;5070690;28;20023;-75
2021/05/12 11:06:18;;;;;;;5.38;1.52;;;20.90;66.70;;;;;;5068334;28;20438;-74
2021/05/12 11:09:02;;;;;;;4.72;1.33;;;21.10;66.50;;;;;;5070201;28;20078;-74
2021/05/12 11:11:28;;;;;;;2.22;1.00;;;21.20;66.30;;;;;;5070114;28;20024;-76
2021/05/12 11:14:21;;;;;;;5.40;1.40;;;21.30;66.00;;;;;;5069092;28;20051;-77
2021/05/12 11:17:00;;;;;;;3.05;1.30;;;21.40;65.60;;;;;;5070825;28;20046;-76
2021/05/12 11:25:00;;;;;;;5.82;1.23;;;21.70;65.80;;;;;;5070952;28;20039;-78
2021/05/12 11:32:33;;;;;;;8.50;1.70;;;21.90;66.30;;;;;;5073381;28;20118;-81
2021/05/12 11:34:59;;;;;;;6.80;1.73;;;22.00;66.00;;;;;;5092154;28;20058;-76
2021/05/12 11:37:26;;;;;;;5.07;1.67;;;22.10;66.00;;;;;;5089904;28;20024;-80
2021/05/12 11:39:54;;;;;;;5.57;1.73;;;22.10;65.50;;;;;;5074398;28;20070;-82
2021/05/12 11:42:25;;;;;;;4.95;1.55;;;22.10;65.30;;;;;;5074259;28;20600;-80
2021/05/12 11:45:13;;;;;;;6.70;2.17;;;22.20;65.10;;;;;;5078452;28;20436;-79
2021/05/12 11:47:40;;;;;;;7.80;1.48;;;22.20;64.90;;;;;;5076284;28;20103;-80
2021/05/12 11:50:23;;;;;;;7.60;1.98;;;22.30;64.70;;;;;;5072627;28;20036;-81
2021/05/12 11:52:49;;;;;;;3.33;1.23;;;22.30;64.30;;;;;;5074325;28;20016;-81
2021/05/12 11:55:18;;;;;;;4.90;1.20;;;22.30;64.00;;;;;;5073970;28;20024;-80
2021/05/12 11:57:49;;;;;;;5.60;1.40;;;22.40;63.70;;;;;;5073558;28;20435;-77
2021/05/12 12:00:19;;;;;;;2.95;1.10;;;22.40;63.50;;;;;;5073773;28;20025;-79
2021/05/12 12:03:03;;;;;;;5.25;1.52;;;22.40;62.80;;;;;;5074116;28;20021;-79
2021/05/12 12:05:48;;;;;;;9.18;1.55;;;22.50;62.70;;;;;;5073777;28;20032;-81
2021/05/12 12:08:19;;;;;;;5.50;1.27;;;22.50;62.30;;;;;;5073480;28;20174;-78
2021/05/12 12:10:45;;;;;;;5.00;1.63;;;22.60;61.60;;;;;;5072767;28;20046;-79
2021/05/12 12:13:16;;;;;;;5.35;1.80;;;22.60;61.60;;;;;;5073113;28;20035;-81
2021/05/12 12:15:47;;;;;;;5.30;1.40;;;22.60;61.60;;;;;;5072874;28;20449;-79
2021/05/12 12:18:24;;;;;;;4.22;1.20;;;22.60;61.60;;;;;;5072404;28;20035;-81
2021/05/12 12:20:49;;;;;;;5.43;1.38;;;22.60;61.30;;;;;;5072560;28;20087;-79
2021/05/12 12:23:24;;;;;;;4.53;1.85;;;22.60;61.00;;;;;;5073290;28;20504;-79
2021/05/12 12:26:09;;;;;;;5.53;1.55;;;22.70;61.10;;;;;;5073789;28;20427;-80
2021/05/12 12:28:35;;;;;;;5.50;1.70;;;22.70;60.50;;;;;;5072891;28;20511;-82
2021/05/12 12:31:00;;;;;;;5.03;1.98;;;22.70;60.50;;;;;;5073694;28;20259;-78
2021/05/12 12:33:26;;;;;;;4.68;1.45;;;22.70;60.10;;;;;;5073246;28;20036;-80
2021/05/12 12:36:02;;;;;;;5.72;2.10;;;22.70;60.10;;;;;;5074163;28;20025;-80
2021/05/12 12:38:30;;;;;;;4.28;1.33;;;22.70;59.90;;;;;;5072228;28;20094;-81
2021/05/12 12:40:56;;;;;;;4.72;1.35;;;22.70;59.90;;;;;;5073391;28;20048;-80
2021/05/12 12:43:22;;;;;;;2.33;1.00;;;22.70;59.80;;;;;;5072407;28;20099;-74
2021/05/12 12:45:47;;;;;;;4.75;1.33;;;22.70;59.90;;;;;;5073143;28;20028;-76
2021/05/12 12:48:13;;;;;;;4.72;1.25;;;22.60;60.20;;;;;;5073154;28;20036;-77
2021/05/12 12:50:41;;;;;;;4.43;1.55;;;22.50;60.10;;;;;;5072672;28;20023;-75
2021/05/12 12:53:10;;;;;;;5.18;1.45;;;22.50;60.30;;;;;;5073173;28;20075;-76
2021/05/12 12:55:37;;;;;;;5.70;1.63;;;22.50;60.30;;;;;;5072835;28;20032;-75
2021/05/12 12:58:07;;;;;;;6.82;1.73;;;22.50;60.20;;;;;;5073047;28;20078;-74
2021/05/12 13:00:37;;;;;;;5.22;1.40;;;22.50;60.10;;;;;;5072148;28;20483;-76
2021/05/12 13:03:16;;;;;;;5.82;2.03;;;22.50;59.80;;;;;;5072807;28;20468;-76
2021/05/12 13:05:49;;;;;;;5.32;1.48;;;22.50;59.60;;;;;;5073101;28;20024;-77